createdAt,value
2023-06-29T00:02:05.093Z,31.88
2023-06-29T00:04:53.019Z,29.70
2023-06-29T00:07:38.004Z,27.83
2023-06-29T00:10:18.950Z,32.05
2023-06-29T00:13:02.311Z,29.50
2023-06-29T00:15:44.427Z,29.05
2023-06-29T00:18:30.056Z,23.02
2023-06-29T00:21:16.174Z,22.95
2023-06-29T00:23:54.860Z,25.75
2023-06-29T00:26:35.704Z,21.80
2023-06-29T00:29:16.211Z,18.17
2023-06-29T00:31:55.748Z,21.17
2023-06-29T00:34:44.068Z,16.08
2023-06-29T00:37:33.187Z,21.33
2023-06-29T00:40:21.039Z,20.20
2023-06-29T00:43:06.811Z,21.63
2023-06-29T00:45:44.956Z,22.10
2023-06-29T00:48:27.232Z,24.00
2023-06-29T00:51:09.664Z,25.63
2023-06-29T00:53:50.929Z,29.92
2023-06-29T00:56:26.652Z,21.05
2023-06-29T00:59:09.174Z,28.25
2023-06-29T01:01:50.717Z,26.20
2023-06-29T01:04:34.812Z,28.60
2023-06-29T01:07:46.998Z,35.28
2023-06-29T01:10:25.445Z,32.70
2023-06-29T01:13:16.607Z,30.88
2023-06-29T01:15:58.554Z,26.77
2023-06-29T01:18:39.705Z,28.58
2023-06-29T01:21:21.937Z,25.40
2023-06-29T01:24:07.682Z,26.95
2023-06-29T01:26:49.982Z,23.67
2023-06-29T01:29:38.140Z,23.65
2023-06-29T01:32:23.708Z,24.70
2023-06-29T01:35:09.123Z,22.80
2023-06-29T01:37:58.425Z,22.88
2023-06-29T01:40:47.965Z,21.95
2023-06-29T01:43:29.488Z,22.05
2023-06-29T01:46:15.906Z,20.50
2023-06-29T01:48:54.914Z,16.35
2023-06-29T01:51:40.970Z,13.77
2023-06-29T01:54:22.199Z,13.93
2023-06-29T01:57:02.932Z,12.98
2023-06-29T01:59:43.805Z,9.70
2023-06-29T02:02:26.092Z,9.05
2023-06-29T02:05:07.972Z,9.60
2023-06-29T02:07:51.389Z,10.07
2023-06-29T02:10:41.415Z,9.30
2023-06-29T02:13:19.425Z,8.60
2023-06-29T02:16:00.846Z,6.93
2023-06-29T02:18:42.040Z,9.02
2023-06-29T02:21:17.230Z,9.57
2023-06-29T02:24:03.837Z,9.82
2023-06-29T02:26:47.761Z,10.55
2023-06-29T02:29:41.741Z,11.75
2023-06-29T02:32:22.506Z,11.38
2023-06-29T02:35:03.782Z,12.65
2023-06-29T02:37:45.833Z,12.38
2023-06-29T02:40:21.287Z,11.95
2023-06-29T02:43:07.993Z,14.88
2023-06-29T02:45:48.927Z,16.67
2023-06-29T02:48:29.070Z,18.52
2023-06-29T02:51:15.997Z,21.48
2023-06-29T02:53:59.475Z,22.48
2023-06-29T02:56:43.146Z,26.05
2023-06-29T02:59:31.648Z,23.08
2023-06-29T03:02:20.643Z,29.67
2023-06-29T03:05:04.621Z,29.10
2023-06-29T03:07:46.230Z,28.50
2023-06-29T03:10:23.971Z,29.73
2023-06-29T03:12:59.997Z,26.83
2023-06-29T03:15:38.409Z,29.20
2023-06-29T03:18:32.328Z,25.55
2023-06-29T03:21:18.409Z,30.58
2023-06-29T03:24:03.959Z,30.45
2023-06-29T03:26:53.902Z,30.58
2023-06-29T03:29:39.902Z,38.58
2023-06-29T03:32:15.158Z,33.78
2023-06-29T03:34:52.791Z,32.75
2023-06-29T03:37:31.959Z,32.80
2023-06-29T03:40:14.662Z,33.08
2023-06-29T03:42:51.029Z,34.15
2023-06-29T03:45:33.259Z,37.17
2023-06-29T03:48:12.433Z,31.15
2023-06-29T03:50:51.081Z,37.22
2023-06-29T03:53:32.083Z,32.58
2023-06-29T03:56:17.598Z,34.67
2023-06-29T03:58:59.174Z,35.35
2023-06-29T04:01:34.574Z,34.08
2023-06-29T04:04:26.996Z,34.85
2023-06-29T04:07:18.967Z,33.53
2023-06-29T04:09:57.134Z,35.38
2023-06-29T04:12:35.756Z,34.42
2023-06-29T04:15:17.026Z,34.50
2023-06-29T04:18:08.819Z,31.60
2023-06-29T04:20:50.202Z,22.55
2023-06-29T04:23:43.873Z,18.70
2023-06-29T04:26:42.213Z,13.02
2023-06-29T04:29:23.122Z,12.05
2023-06-29T04:32:03.193Z,14.30
2023-06-29T04:34:55.662Z,8.80
2023-06-29T04:37:46.030Z,6.90
2023-06-29T04:40:27.097Z,9.93
2023-06-29T04:43:12.638Z,7.18
2023-06-29T04:46:05.496Z,6.88
2023-06-29T04:48:50.236Z,7.88
2023-06-29T04:51:40.857Z,5.57
2023-06-29T04:54:37.734Z,5.57
2023-06-29T04:57:16.951Z,4.65
2023-06-29T05:00:02.243Z,7.00
2023-06-29T05:02:37.579Z,6.10
2023-06-29T05:05:20.203Z,7.13
2023-06-29T05:07:58.176Z,11.40
2023-06-29T05:10:41.847Z,6.20
2023-06-29T05:13:33.934Z,7.15
2023-06-29T05:16:22.849Z,6.05
2023-06-29T05:19:05.064Z,16.50
2023-06-29T05:21:53.070Z,6.18
2023-06-29T05:24:32.698Z,5.07
2023-06-29T05:27:08.905Z,9.88
2023-06-29T05:29:46.599Z,5.28
2023-06-29T05:32:22.050Z,9.90
2023-06-29T05:35:05.740Z,5.28
2023-06-29T05:37:39.420Z,8.88
2023-06-29T05:40:11.203Z,7.55
2023-06-29T05:42:57.920Z,3.65
2023-06-29T05:45:40.570Z,7.50
2023-06-29T05:48:16.033Z,3.80
2023-06-29T05:50:57.482Z,7.25
2023-06-29T05:53:30.466Z,8.20
2023-06-29T05:56:11.341Z,5.20
2023-06-29T05:58:52.454Z,4.57
2023-06-29T06:01:30.038Z,4.85
2023-06-29T06:04:07.594Z,7.05
2023-06-29T06:06:52.298Z,5.18
2023-06-29T06:09:30.149Z,4.25
2023-06-29T06:12:24.948Z,6.28
2023-06-29T06:15:03.240Z,4.57
2023-06-29T06:17:35.546Z,5.97
2023-06-29T06:20:19.469Z,5.53
2023-06-29T06:23:07.703Z,6.65
2023-06-29T06:25:43.339Z,5.78
2023-06-29T06:28:16.095Z,5.68
2023-06-29T06:31:01.826Z,4.80
2023-06-29T06:33:51.210Z,9.88
2023-06-29T06:36:33.951Z,4.35
2023-06-29T06:39:19.428Z,7.13
2023-06-29T06:41:57.831Z,5.90
2023-06-29T06:44:35.195Z,4.85
2023-06-29T06:47:20.748Z,7.82
2023-06-29T06:49:59.709Z,6.90
2023-06-29T06:52:43.072Z,37.17
2023-06-29T06:55:18.442Z,6.32
2023-06-29T06:58:01.899Z,5.82
2023-06-29T07:00:43.781Z,5.40
2023-06-29T07:03:20.542Z,6.43
2023-06-29T07:08:36.890Z,4.90
2023-06-29T07:11:14.776Z,3.88
2023-06-29T07:13:53.400Z,9.65
2023-06-29T07:16:37.385Z,6.75
2023-06-29T07:24:55.271Z,5.55
2023-06-29T07:27:45.661Z,5.50
2023-06-29T07:30:25.586Z,4.75
2023-06-29T07:33:08.771Z,3.38
2023-06-29T07:35:55.059Z,3.40
2023-06-29T07:38:26.456Z,6.30
2023-06-29T07:41:01.567Z,5.35
2023-06-29T07:43:51.144Z,6.05
2023-06-29T07:46:24.247Z,7.28
2023-06-29T07:48:57.824Z,6.30
2023-06-29T07:54:16.321Z,21.77
2023-06-29T07:59:35.657Z,5.50
2023-06-29T08:02:29.002Z,4.13
2023-06-29T08:07:47.116Z,10.20
2023-06-29T08:10:28.157Z,4.10
2023-06-29T08:13:12.176Z,8.27
2023-06-29T08:15:49.785Z,4.07
2023-06-29T08:18:37.413Z,4.65
2023-06-29T08:21:11.849Z,4.47
2023-06-29T08:23:47.806Z,5.22
2023-06-29T08:26:43.099Z,5.10
2023-06-29T08:29:19.283Z,4.13
2023-06-29T08:32:02.306Z,7.70
2023-06-29T08:34:48.647Z,5.65
2023-06-29T08:37:21.472Z,7.75
2023-06-29T08:40:02.208Z,7.07
2023-06-29T08:42:46.976Z,7.30
2023-06-29T08:45:25.909Z,7.53
2023-06-29T08:51:06.615Z,5.55
2023-06-29T08:53:46.858Z,2.38
2023-06-29T08:56:27.405Z,7.60
2023-06-29T08:59:05.481Z,6.88
2023-06-29T09:01:51.266Z,3.13
2023-06-29T09:04:29.764Z,2.40
2023-06-29T09:07:08.851Z,5.53
2023-06-29T09:12:41.566Z,5.28
2023-06-29T09:15:53.624Z,4.10
2023-06-29T09:18:44.474Z,5.10
2023-06-29T09:21:37.068Z,3.08
2023-06-29T09:24:17.252Z,4.22
2023-06-29T09:30:09.681Z,4.18
2023-06-29T09:32:57.752Z,4.43
2023-06-29T09:35:36.164Z,2.92
2023-06-29T09:38:17.580Z,3.08
2023-06-29T09:41:00.848Z,2.15
2023-06-29T09:43:34.351Z,2.67
2023-06-29T09:52:06.172Z,6.45
2023-06-29T09:54:39.009Z,21.17
2023-06-29T09:57:15.050Z,6.68
2023-06-29T10:00:00.736Z,4.55
2023-06-29T10:02:39.874Z,4.85
2023-06-29T10:05:19.978Z,3.60
2023-06-29T10:08:14.620Z,6.72
2023-06-29T10:11:15.987Z,5.15
2023-06-29T10:14:07.475Z,5.35
2023-06-29T10:16:57.587Z,3.30
2023-06-29T10:19:44.398Z,8.32
2023-06-29T10:22:33.583Z,4.97
2023-06-29T10:25:30.329Z,2.90
2023-06-29T10:28:07.286Z,7.80
2023-06-29T10:30:58.233Z,3.40
2023-06-29T10:33:48.084Z,6.68
2023-06-29T10:36:37.827Z,3.20
2023-06-29T10:39:45.492Z,8.63
2023-06-29T10:42:23.592Z,4.50
2023-06-29T10:45:07.198Z,4.82
2023-06-29T10:47:43.107Z,2.85
2023-06-29T10:50:19.032Z,2.75
2023-06-29T10:52:51.278Z,4.18
2023-06-29T10:55:41.315Z,4.20
2023-06-29T10:58:35.683Z,2.67
2023-06-29T11:01:27.366Z,3.25
2023-06-29T11:04:05.326Z,3.93
2023-06-29T11:06:54.525Z,3.22
2023-06-29T11:09:35.808Z,4.03
2023-06-29T11:12:15.747Z,3.03
2023-06-29T11:17:54.394Z,2.08
2023-06-29T11:20:47.679Z,4.00
2023-06-29T11:23:37.080Z,3.05
2023-06-29T11:26:10.393Z,4.15
2023-06-29T11:28:51.338Z,5.70
2023-06-29T11:31:44.687Z,3.60
2023-06-29T11:34:25.973Z,4.82
2023-06-29T11:37:24.788Z,5.53
2023-06-29T11:40:17.454Z,3.45
2023-06-29T11:43:04.013Z,2.20
2023-06-29T11:45:52.263Z,3.08
2023-06-29T11:48:35.009Z,3.65
2023-06-29T11:51:11.423Z,2.88
2023-06-29T11:53:51.966Z,1.90
2023-06-29T11:56:41.711Z,2.40
2023-06-29T11:59:23.859Z,2.40
2023-06-29T12:02:09.231Z,2.53
2023-06-29T12:04:57.894Z,2.53
2023-06-29T12:07:50.567Z,3.58
2023-06-29T12:10:33.272Z,3.25
2023-06-29T12:13:12.516Z,3.83
2023-06-29T12:18:39.613Z,2.47
2023-06-29T12:21:27.342Z,2.70
2023-06-29T12:24:04.256Z,1.92
2023-06-29T12:26:41.582Z,1.73
2023-06-29T12:29:16.801Z,3.50
2023-06-29T12:31:59.067Z,3.13
2023-06-29T12:37:20.372Z,7.68
2023-06-29T12:39:56.485Z,4.20
2023-06-29T12:45:13.351Z,4.72
2023-06-29T12:48:05.049Z,4.72
2023-06-29T12:50:41.332Z,1.85
2023-06-29T12:53:20.696Z,3.58
2023-06-29T12:56:00.010Z,1.98
2023-06-29T12:58:37.944Z,5.78
2023-06-29T13:01:19.206Z,2.60
2023-06-29T13:03:55.344Z,5.22
2023-06-29T13:06:33.603Z,8.68
2023-06-29T13:09:09.216Z,3.17
2023-06-29T13:11:48.202Z,2.60
2023-06-29T13:14:24.246Z,1.95
2023-06-29T13:17:01.542Z,3.20
2023-06-29T13:19:42.644Z,4.35
2023-06-29T13:22:34.773Z,1.70
2023-06-29T13:25:20.346Z,4.07
2023-06-29T13:27:58.180Z,4.05
2023-06-29T13:30:29.701Z,2.25
2023-06-29T13:33:22.440Z,3.45
2023-06-29T13:36:03.713Z,2.00
2023-06-29T13:38:36.500Z,13.63
2023-06-29T13:41:08.225Z,7.80
2023-06-29T13:43:52.882Z,2.30
2023-06-29T13:46:25.858Z,4.03
2023-06-29T13:49:09.910Z,4.30
2023-06-29T13:51:49.411Z,2.33
2023-06-29T13:54:35.073Z,3.20
2023-06-29T13:57:11.000Z,7.78
2023-06-29T13:59:52.951Z,2.90
2023-06-29T14:02:31.604Z,3.50
2023-06-29T14:05:07.258Z,3.85
2023-06-29T14:07:48.772Z,2.92
2023-06-29T14:10:24.849Z,2.85
2023-06-29T14:13:04.719Z,2.15
2023-06-29T14:15:42.041Z,10.50
2023-06-29T14:18:17.866Z,5.05
2023-06-29T14:23:52.085Z,2.20
2023-06-29T14:26:30.492Z,1.75
2023-06-29T14:29:16.588Z,4.20
2023-06-29T14:31:50.689Z,2.85
2023-06-29T14:34:36.414Z,2.25
2023-06-29T14:40:08.685Z,5.47
2023-06-29T14:42:44.959Z,3.47
2023-06-29T14:45:29.360Z,3.55
2023-06-29T14:48:01.905Z,6.65
2023-06-29T14:50:34.514Z,4.80
2023-06-29T14:53:07.036Z,4.15
2023-06-29T14:55:44.078Z,4.65
2023-06-29T14:58:25.491Z,3.47
2023-06-29T15:01:00.129Z,5.85
2023-06-29T15:03:35.415Z,1.83
2023-06-29T15:06:13.780Z,2.40
2023-06-29T15:08:54.188Z,2.00
2023-06-29T15:11:24.541Z,2.10
2023-06-29T15:14:04.950Z,4.78
2023-06-29T15:16:35.255Z,1.90
2023-06-29T15:19:16.744Z,1.40
2023-06-29T15:21:50.406Z,2.50
2023-06-29T15:24:22.608Z,1.88
2023-06-29T15:27:05.182Z,4.57
2023-06-29T15:29:35.233Z,3.22
2023-06-29T15:32:19.134Z,8.23
2023-06-29T15:34:50.161Z,9.18
2023-06-29T15:37:25.496Z,1.90
2023-06-29T15:40:03.723Z,2.22
2023-06-29T15:42:46.773Z,2.42
2023-06-29T15:45:22.322Z,6.60
2023-06-29T15:48:02.521Z,1.67
2023-06-29T15:50:32.920Z,2.65
2023-06-29T15:53:11.202Z,1.85
2023-06-29T15:55:47.381Z,7.97
2023-06-29T15:58:25.228Z,2.05
2023-06-29T16:01:00.772Z,5.68
2023-06-29T16:03:33.569Z,10.18
2023-06-29T16:06:09.085Z,2.30
2023-06-29T16:08:41.737Z,4.63
2023-06-29T16:11:27.804Z,3.58
2023-06-29T16:14:00.716Z,3.80
2023-06-29T16:16:38.307Z,4.22
2023-06-29T16:19:19.031Z,3.88
2023-06-29T16:22:19.490Z,1.75
2023-06-29T16:24:52.254Z,3.38
2023-06-29T16:27:38.289Z,2.78
2023-06-29T16:30:13.694Z,5.38
2023-06-29T16:32:50.037Z,4.53
2023-06-29T16:35:24.756Z,2.90
2023-06-29T16:38:04.635Z,4.10
2023-06-29T16:40:42.559Z,2.50
2023-06-29T16:43:18.372Z,3.90
2023-06-29T16:45:56.735Z,7.65
2023-06-29T16:48:33.357Z,3.55
2023-06-29T16:51:17.181Z,2.53
2023-06-29T16:53:49.742Z,3.83
2023-06-29T16:56:33.099Z,3.28
2023-06-29T16:59:10.365Z,5.75
2023-06-29T17:01:48.756Z,3.30
2023-06-29T17:04:27.689Z,3.10
2023-06-29T17:07:03.201Z,6.03
2023-06-29T17:09:36.164Z,6.85
2023-06-29T17:12:09.800Z,2.67
2023-06-29T17:14:42.696Z,5.07
2023-06-29T17:17:15.994Z,3.20
2023-06-29T17:20:12.113Z,4.00
2023-06-29T17:22:55.756Z,9.18
2023-06-29T17:25:34.003Z,5.97
2023-06-29T17:28:11.454Z,4.38
2023-06-29T17:30:56.697Z,3.20
2023-06-29T17:33:53.392Z,5.10
2023-06-29T17:36:32.396Z,3.47
2023-06-29T17:39:12.331Z,8.88
2023-06-29T17:41:54.169Z,4.63
2023-06-29T17:44:32.228Z,3.97
2023-06-29T17:47:04.649Z,3.95
2023-06-29T17:49:39.808Z,3.13
2023-06-29T17:52:21.125Z,4.40
2023-06-29T17:54:58.914Z,5.45
2023-06-29T17:57:38.612Z,5.28
2023-06-29T18:00:24.617Z,8.00
2023-06-29T18:03:02.957Z,10.68
2023-06-29T18:05:35.729Z,4.75
2023-06-29T18:08:16.177Z,3.90
2023-06-29T18:10:57.013Z,4.50
2023-06-29T18:13:32.737Z,15.75
2023-06-29T18:16:10.730Z,7.97
2023-06-29T18:19:07.167Z,13.50
2023-06-29T18:21:39.671Z,7.32
2023-06-29T18:24:17.657Z,9.57
2023-06-29T18:26:50.281Z,7.82
2023-06-29T18:29:25.938Z,7.43
2023-06-29T18:32:07.414Z,11.77
2023-06-29T18:34:53.559Z,8.18
2023-06-29T18:37:33.644Z,11.05
2023-06-29T18:40:06.931Z,9.75
2023-06-29T18:42:43.166Z,20.52
2023-06-29T18:45:21.322Z,13.60
2023-06-29T18:48:00.251Z,7.80
2023-06-29T18:50:33.374Z,16.73
2023-06-29T18:53:10.965Z,8.02
2023-06-29T18:55:44.072Z,14.60
2023-06-29T19:00:52.348Z,13.68
2023-06-29T19:03:29.172Z,8.02
2023-06-29T19:06:04.918Z,10.10
2023-06-29T19:08:39.699Z,7.68
2023-06-29T19:11:18.354Z,5.80
2023-06-29T19:13:59.586Z,11.35
2023-06-29T19:16:36.117Z,13.45
2023-06-29T19:19:17.448Z,10.15
2023-06-29T19:21:55.548Z,15.30
2023-06-29T19:24:25.826Z,10.88
2023-06-29T19:26:56.241Z,11.38
2023-06-29T19:32:27.266Z,11.02
2023-06-29T19:35:11.732Z,8.80
2023-06-29T19:37:48.384Z,9.20
2023-06-29T19:40:35.469Z,7.05
2023-06-29T19:43:23.418Z,14.82
2023-06-29T19:46:15.340Z,13.02
2023-06-29T19:48:59.401Z,8.25
2023-06-29T19:51:46.164Z,9.15
2023-06-29T19:54:21.246Z,8.13
2023-06-29T19:56:59.359Z,6.32
2023-06-29T19:59:34.324Z,8.07
2023-06-29T20:02:12.212Z,10.10
2023-06-29T20:04:47.601Z,6.32
2023-06-29T20:10:25.827Z,6.32
2023-06-29T20:13:11.420Z,7.78
2023-06-29T20:15:46.817Z,14.03
2023-06-29T20:18:26.573Z,7.10
2023-06-29T20:21:12.943Z,6.80
2023-06-29T20:24:13.992Z,9.60
2023-06-29T20:26:52.000Z,15.75
2023-06-29T20:29:40.020Z,7.28
2023-06-29T20:32:26.235Z,7.13
2023-06-29T20:35:09.599Z,7.03
2023-06-29T20:37:53.136Z,6.43
2023-06-29T20:40:38.967Z,6.78
2023-06-29T20:43:23.758Z,7.50
2023-06-29T20:46:00.382Z,5.90
2023-06-29T20:48:55.597Z,11.75
2023-06-29T20:51:40.417Z,15.25
2023-06-29T20:54:19.230Z,6.65
2023-06-29T20:57:02.895Z,8.45
2023-06-29T20:59:41.182Z,8.32
2023-06-29T21:05:15.823Z,9.57
2023-06-29T21:08:17.505Z,11.63
2023-06-29T21:11:01.952Z,11.15
2023-06-29T21:13:48.524Z,6.78
2023-06-29T21:16:28.343Z,10.80
2023-06-29T21:19:16.885Z,10.40
2023-06-29T21:21:57.496Z,14.43
2023-06-29T21:24:43.043Z,8.55
2023-06-29T21:27:23.951Z,9.60
2023-06-29T21:30:06.176Z,12.15
2023-06-29T21:32:51.843Z,14.20
2023-06-29T21:35:27.303Z,11.93
2023-06-29T21:38:07.041Z,9.05
2023-06-29T21:40:53.009Z,8.80
2023-06-29T21:43:38.926Z,10.02
2023-06-29T21:46:24.856Z,7.95
2023-06-29T21:49:03.266Z,7.60
2023-06-29T21:51:43.965Z,7.53
2023-06-29T21:54:27.334Z,8.27
2023-06-29T21:57:03.030Z,7.97
2023-06-29T21:59:41.196Z,8.27
2023-06-29T22:02:22.508Z,9.43
2023-06-29T22:05:18.160Z,11.43
2023-06-29T22:07:56.049Z,11.57
2023-06-29T22:10:42.877Z,12.50
2023-06-29T22:13:26.808Z,13.25
2023-06-29T22:18:53.155Z,12.60
2023-06-29T22:21:36.745Z,14.57
2023-06-29T22:24:17.891Z,17.23
2023-06-29T22:26:58.122Z,14.52
2023-06-29T22:29:36.229Z,15.40
2023-06-29T22:32:28.058Z,13.73
2023-06-29T22:35:10.106Z,13.63
2023-06-29T22:37:55.550Z,14.48
2023-06-29T22:40:38.943Z,13.13
2023-06-29T22:43:25.862Z,12.85
2023-06-29T22:46:17.510Z,12.05
2023-06-29T22:49:03.402Z,18.75
2023-06-29T22:51:55.124Z,12.15
2023-06-29T22:54:35.993Z,11.75
2023-06-29T22:57:25.036Z,12.23
2023-06-29T23:00:11.442Z,11.85
2023-06-29T23:02:49.624Z,14.93
2023-06-29T23:05:25.108Z,12.95
2023-06-29T23:08:22.985Z,13.10
2023-06-29T23:10:56.255Z,13.43
2023-06-29T23:13:42.898Z,12.13
2023-06-29T23:16:28.554Z,12.90
2023-06-29T23:19:14.799Z,12.82
2023-06-29T23:21:55.753Z,12.15
2023-06-29T23:24:41.896Z,12.85
2023-06-29T23:27:27.503Z,11.27
2023-06-29T23:30:13.809Z,12.93
2023-06-29T23:32:52.693Z,12.02
2023-06-29T23:35:33.134Z,13.63
2023-06-29T23:38:18.735Z,12.55
2023-06-29T23:41:05.248Z,14.82
2023-06-29T23:44:05.038Z,14.18
2023-06-29T23:46:54.425Z,15.27
2023-06-29T23:49:35.028Z,14.02
2023-06-29T23:52:21.586Z,14.23
2023-06-29T23:54:59.276Z,13.52
2023-06-29T23:57:39.916Z,13.30
